createdAt,value
2018-09-21T00:01:27.569Z,95.33
2018-09-21T00:03:55.854Z,94.98
2018-09-21T00:06:24.158Z,96.18
2018-09-21T00:08:52.442Z,97.60
2018-09-21T00:11:20.745Z,98.84
2018-09-21T00:13:49.052Z,98.08
2018-09-21T00:16:17.340Z,99.46
2018-09-21T00:18:45.621Z,99.32
2018-09-21T00:21:13.926Z,99.61
2018-09-21T00:23:42.223Z,100.00
2018-09-21T00:26:10.522Z,100.00
2018-09-21T00:28:38.833Z,100.00
2018-09-21T00:31:07.126Z,100.00
2018-09-21T00:33:35.418Z,100.00
2018-09-21T00:36:03.732Z,100.00
2018-09-21T00:38:32.130Z,100.00
2018-09-21T00:41:00.613Z,100.00
2018-09-21T00:43:28.935Z,100.00
2018-09-21T00:45:57.222Z,100.00
2018-09-21T00:48:25.538Z,100.00
2018-09-21T00:50:53.847Z,100.00
2018-09-21T00:53:22.146Z,100.00
2018-09-21T00:55:50.454Z,100.00
2018-09-21T00:58:18.754Z,100.00
2018-09-21T01:00:47.050Z,100.00
2018-09-21T01:03:15.348Z,100.00
2018-09-21T01:05:43.666Z,100.00
2018-09-21T01:08:11.955Z,100.00
2018-09-21T01:10:40.251Z,100.00
2018-09-21T01:13:08.574Z,100.00
2018-09-21T01:15:36.886Z,100.00
2018-09-21T01:18:05.190Z,100.00
2018-09-21T01:20:33.499Z,100.00
2018-09-21T01:23:01.800Z,100.00
2018-09-21T01:25:30.096Z,100.00
2018-09-21T01:27:58.406Z,100.00
2018-09-21T01:30:26.703Z,100.00
2018-09-21T01:32:55.027Z,100.00
2018-09-21T01:35:23.339Z,100.00
2018-09-21T01:37:51.635Z,100.00
2018-09-21T01:40:19.939Z,100.00
2018-09-21T01:42:48.243Z,100.00
2018-09-21T01:45:16.534Z,100.00
2018-09-21T01:47:45.654Z,100.00
2018-09-21T01:50:13.962Z,100.00
2018-09-21T01:52:42.271Z,100.00
2018-09-21T01:55:10.566Z,100.00
2018-09-21T01:57:38.886Z,100.00
2018-09-21T02:00:07.188Z,100.00
2018-09-21T02:02:35.483Z,100.00
2018-09-21T02:05:03.802Z,100.00
2018-09-21T02:07:32.099Z,100.00
2018-09-21T02:10:00.392Z,100.00
2018-09-21T02:12:28.702Z,100.00
2018-09-21T02:14:56.987Z,100.00
2018-09-21T02:17:25.282Z,100.00
2018-09-21T02:19:53.610Z,100.00
2018-09-21T02:22:21.906Z,100.00
2018-09-21T02:24:50.223Z,100.00
2018-09-21T02:27:18.530Z,100.00
2018-09-21T02:29:46.826Z,100.00
2018-09-21T02:32:15.117Z,100.00
2018-09-21T02:34:43.434Z,100.00
2018-09-21T02:37:11.718Z,100.00
2018-09-21T02:39:40.011Z,100.00
2018-09-21T02:42:08.315Z,100.00
2018-09-21T02:44:36.606Z,100.00
2018-09-21T02:47:04.907Z,100.00
2018-09-21T02:49:33.212Z,100.00
2018-09-21T02:52:01.511Z,100.00
2018-09-21T02:54:29.805Z,100.00
2018-09-21T02:56:58.115Z,100.00
2018-09-21T02:59:26.409Z,100.00
2018-09-21T03:01:54.706Z,100.00
2018-09-21T03:04:23.015Z,100.00
2018-09-21T03:06:51.316Z,100.00
2018-09-21T03:09:19.602Z,100.00
2018-09-21T03:11:47.905Z,100.00
2018-09-21T03:14:16.205Z,100.00
2018-09-21T03:16:44.512Z,100.00
2018-09-21T03:19:12.824Z,100.00
2018-09-21T03:21:41.107Z,100.00
2018-09-21T03:24:09.399Z,100.00
2018-09-21T03:26:37.714Z,100.00
2018-09-21T03:29:06.003Z,100.00
2018-09-21T03:31:34.286Z,100.00
2018-09-21T03:34:02.598Z,100.00
2018-09-21T03:36:30.902Z,100.00
2018-09-21T03:38:59.182Z,100.00
2018-09-21T03:41:27.491Z,100.00
2018-09-21T03:43:55.779Z,100.00
2018-09-21T03:46:24.079Z,100.00
2018-09-21T03:48:52.374Z,100.00
2018-09-21T03:51:20.665Z,100.00
2018-09-21T03:53:48.958Z,100.00
2018-09-21T03:56:17.259Z,100.00
2018-09-21T03:58:45.557Z,100.00
2018-09-21T04:01:13.871Z,100.00
2018-09-21T04:03:42.143Z,100.00
2018-09-21T04:06:10.432Z,100.00
2018-09-21T04:08:38.722Z,100.00
2018-09-21T04:11:07.063Z,100.00
2018-09-21T04:13:35.356Z,100.00
2018-09-21T04:16:03.643Z,100.00
2018-09-21T04:18:31.952Z,100.00
2018-09-21T04:21:00.248Z,100.00
2018-09-21T04:23:28.834Z,100.00
2018-09-21T04:25:57.135Z,100.00
2018-09-21T04:28:25.475Z,100.00
2018-09-21T04:30:53.775Z,100.00
2018-09-21T04:33:22.070Z,100.00
2018-09-21T04:35:51.938Z,100.00
2018-09-21T04:38:20.215Z,100.00
2018-09-21T04:40:48.527Z,100.00
2018-09-21T04:43:16.828Z,100.00
2018-09-21T04:45:45.184Z,100.00
2018-09-21T04:48:13.426Z,100.00
2018-09-21T04:50:41.722Z,100.00
2018-09-21T04:53:10.021Z,100.00
2018-09-21T04:55:38.335Z,100.00
2018-09-21T04:58:06.628Z,100.00
2018-09-21T05:00:34.948Z,100.00
2018-09-21T05:03:03.251Z,100.00
2018-09-21T05:05:31.552Z,100.00
2018-09-21T05:07:59.851Z,100.00
2018-09-21T05:10:28.159Z,100.00
2018-09-21T05:12:56.448Z,99.10
2018-09-21T05:15:24.735Z,99.75
2018-09-21T05:17:53.051Z,100.00
2018-09-21T05:20:21.347Z,100.00
2018-09-21T05:22:49.638Z,99.24
2018-09-21T05:25:17.938Z,100.00
2018-09-21T05:27:46.237Z,100.00
2018-09-21T05:30:14.522Z,99.00
2018-09-21T05:32:42.826Z,97.79
2018-09-21T05:35:11.171Z,97.30
2018-09-21T05:37:39.419Z,98.54
2018-09-21T05:40:08.294Z,100.00
2018-09-21T05:42:36.596Z,100.00
2018-09-21T05:45:04.883Z,100.00
2018-09-21T05:47:33.211Z,100.00
2018-09-21T05:50:01.506Z,100.00
2018-09-21T05:52:29.803Z,100.00
2018-09-21T05:54:58.116Z,100.00
2018-09-21T05:57:26.407Z,100.00
2018-09-21T05:59:54.710Z,100.00
2018-09-21T06:02:23.046Z,100.00
2018-09-21T06:04:51.318Z,100.00
2018-09-21T06:07:19.603Z,100.00
2018-09-21T06:09:47.927Z,100.00
2018-09-21T06:12:16.234Z,100.00
2018-09-21T06:14:44.522Z,98.62
2018-09-21T06:17:12.827Z,97.74
2018-09-21T06:19:41.156Z,94.20
2018-09-21T06:22:09.459Z,95.79
2018-09-21T06:24:37.763Z,94.47
2018-09-21T06:27:06.508Z,95.49
2018-09-21T06:29:34.815Z,94.76
2018-09-21T06:32:03.135Z,95.87
2018-09-21T06:34:31.428Z,89.80
2018-09-21T06:36:59.718Z,88.88
2018-09-21T06:39:28.023Z,89.40
2018-09-21T06:41:56.310Z,87.51
2018-09-21T06:44:24.648Z,86.30
2018-09-21T06:46:52.916Z,84.55
2018-09-21T06:49:21.202Z,84.70
2018-09-21T06:51:49.500Z,84.56
2018-09-21T06:54:17.799Z,82.28
2018-09-21T06:56:46.128Z,81.03
2018-09-21T06:59:14.418Z,79.52
2018-09-21T07:01:42.766Z,78.68
2018-09-21T07:04:11.030Z,80.09
2018-09-21T07:06:39.322Z,79.26
2018-09-21T07:09:07.632Z,78.21
2018-09-21T07:11:35.910Z,76.18
2018-09-21T07:14:04.198Z,74.72
2018-09-21T07:16:32.556Z,74.97
2018-09-21T07:19:00.807Z,75.28
2018-09-21T07:21:29.094Z,71.05
2018-09-21T07:23:57.391Z,72.78
2018-09-21T07:26:25.679Z,70.79
2018-09-21T07:28:53.998Z,66.98
2018-09-21T07:31:22.374Z,67.31
2018-09-21T07:33:50.576Z,67.29
2018-09-21T07:36:18.853Z,65.35
2018-09-21T07:38:47.146Z,65.68
2018-09-21T07:41:15.434Z,66.06
2018-09-21T07:43:43.715Z,64.80
2018-09-21T07:46:12.023Z,63.31
2018-09-21T07:48:40.295Z,63.58
2018-09-21T07:51:08.582Z,62.48
2018-09-21T07:53:36.886Z,61.93
2018-09-21T07:56:05.178Z,62.60
2018-09-21T07:58:33.466Z,61.16
2018-09-21T08:01:01.759Z,60.11
2018-09-21T08:03:30.056Z,61.53
2018-09-21T08:05:58.342Z,60.31
2018-09-21T08:08:26.641Z,59.88
2018-09-21T08:10:54.926Z,61.09
2018-09-21T08:13:23.207Z,59.27
2018-09-21T08:15:51.503Z,60.11
2018-09-21T08:18:19.798Z,59.43
2018-09-21T08:20:48.078Z,60.11
2018-09-21T08:23:16.379Z,58.53
2018-09-21T08:25:44.675Z,60.64
2018-09-21T08:28:12.954Z,59.61
2018-09-21T08:30:41.251Z,56.97
2018-09-21T08:33:09.543Z,56.46
2018-09-21T08:35:37.818Z,57.23
2018-09-21T08:38:06.137Z,57.93
2018-09-21T08:40:34.421Z,55.64
2018-09-21T08:43:02.706Z,56.25
2018-09-21T08:45:31.058Z,55.78
2018-09-21T08:47:59.284Z,54.86
2018-09-21T08:50:27.946Z,54.09
2018-09-21T08:52:56.250Z,54.81
2018-09-21T08:55:24.534Z,55.66
2018-09-21T08:57:52.825Z,53.07
2018-09-21T09:00:21.147Z,53.13
2018-09-21T09:02:49.444Z,52.33
2018-09-21T09:05:17.706Z,52.82
2018-09-21T09:07:46.003Z,51.03
2018-09-21T09:10:14.296Z,52.68
2018-09-21T09:12:42.583Z,51.84
2018-09-21T09:15:10.878Z,52.17
2018-09-21T09:17:39.158Z,52.18
2018-09-21T09:20:07.444Z,52.37
2018-09-21T09:22:35.742Z,51.57
2018-09-21T09:25:04.045Z,52.97
2018-09-21T09:27:32.323Z,53.40
2018-09-21T09:30:00.625Z,52.05
2018-09-21T09:32:28.908Z,53.50
2018-09-21T09:34:57.190Z,52.90
2018-09-21T09:37:25.491Z,53.94
2018-09-21T09:39:53.782Z,54.93
2018-09-21T09:42:22.103Z,52.94
2018-09-21T09:44:50.403Z,52.25
2018-09-21T09:47:18.719Z,51.05
2018-09-21T09:49:47.007Z,52.39
2018-09-21T09:52:15.314Z,51.85
2018-09-21T09:54:43.608Z,51.54
2018-09-21T09:57:11.887Z,50.57
2018-09-21T09:59:40.187Z,51.13
2018-09-21T10:02:08.466Z,51.08
2018-09-21T10:04:36.754Z,52.89
2018-09-21T10:07:05.059Z,52.31
2018-09-21T10:09:33.342Z,52.87
2018-09-21T10:12:01.631Z,53.02
2018-09-21T10:14:29.934Z,52.53
2018-09-21T10:16:58.223Z,52.01
2018-09-21T10:19:26.502Z,52.14
2018-09-21T10:21:54.803Z,53.06
2018-09-21T10:24:23.100Z,54.21
2018-09-21T10:26:51.433Z,52.62
2018-09-21T10:29:19.678Z,53.21
2018-09-21T10:31:47.971Z,52.30
2018-09-21T10:34:16.249Z,52.35
2018-09-21T10:36:51.291Z,52.91
2018-09-21T10:39:19.637Z,52.64
2018-09-21T10:41:47.859Z,52.66
2018-09-21T10:44:16.159Z,52.91
2018-09-21T10:46:44.451Z,52.90
2018-09-21T10:49:12.734Z,53.44
2018-09-21T10:51:41.026Z,54.13
2018-09-21T10:54:09.308Z,52.28
2018-09-21T10:56:37.591Z,52.99
2018-09-21T10:59:10.488Z,51.32
2018-09-21T11:01:52.111Z,53.22
2018-09-21T11:04:26.295Z,52.27
2018-09-21T11:06:54.594Z,51.48
2018-09-21T11:09:22.866Z,51.76
2018-09-21T11:11:51.165Z,52.00
2018-09-21T11:14:19.450Z,51.11
2018-09-21T11:16:47.731Z,52.28
2018-09-21T11:19:16.035Z,51.81
2018-09-21T11:21:44.324Z,53.45
2018-09-21T11:24:12.601Z,52.97
2018-09-21T11:26:40.894Z,52.00
2018-09-21T11:29:09.182Z,53.48
2018-09-21T11:31:37.466Z,53.43
2018-09-21T11:34:05.763Z,53.01
2018-09-21T11:36:34.042Z,53.29
2018-09-21T11:39:02.335Z,53.14
2018-09-21T11:41:30.628Z,53.20
2018-09-21T11:43:58.922Z,52.05
2018-09-21T11:46:27.203Z,52.79
2018-09-21T11:48:55.507Z,52.75
2018-09-21T11:51:23.791Z,52.99
2018-09-21T11:53:52.070Z,53.23
2018-09-21T11:56:20.362Z,53.01
2018-09-21T11:58:48.638Z,52.76
2018-09-21T12:01:16.921Z,52.83
2018-09-21T12:03:45.222Z,53.51
2018-09-21T12:06:13.506Z,53.12
2018-09-21T12:08:41.793Z,53.19
2018-09-21T12:11:10.091Z,54.12
2018-09-21T12:13:38.371Z,53.13
2018-09-21T12:16:06.766Z,53.04
2018-09-21T12:18:34.998Z,53.57
2018-09-21T12:21:03.298Z,54.15
2018-09-21T12:23:31.587Z,52.87
2018-09-21T12:25:59.882Z,53.01
2018-09-21T12:28:28.164Z,52.80
2018-09-21T12:30:56.485Z,53.56
2018-09-21T12:33:24.742Z,53.45
2018-09-21T12:35:53.088Z,52.29
2018-09-21T12:38:21.334Z,51.69
2018-09-21T12:40:49.634Z,53.52
2018-09-21T12:43:17.916Z,53.41
2018-09-21T12:45:46.197Z,52.58
2018-09-21T12:48:14.498Z,55.11
2018-09-21T12:50:42.845Z,54.17
2018-09-21T12:53:11.062Z,53.08
2018-09-21T12:55:39.366Z,53.48
2018-09-21T12:58:07.709Z,54.89
2018-09-21T13:00:35.953Z,55.92
2018-09-21T13:03:04.269Z,56.75
2018-09-21T13:05:32.630Z,55.61
2018-09-21T13:08:00.887Z,55.17
2018-09-21T13:10:29.192Z,56.83
2018-09-21T13:12:57.684Z,56.08
2018-09-21T13:15:26.182Z,55.81
2018-09-21T13:17:54.483Z,56.34
2018-09-21T13:20:22.758Z,56.02
2018-09-21T13:22:51.046Z,56.57
2018-09-21T13:25:19.342Z,56.58
2018-09-21T13:27:47.630Z,56.27
2018-09-21T13:30:15.914Z,55.44
2018-09-21T13:32:44.236Z,53.51
2018-09-21T13:35:12.515Z,53.62
2018-09-21T13:37:40.791Z,53.69
2018-09-21T13:40:09.098Z,51.65
2018-09-21T13:42:37.394Z,52.23
2018-09-21T13:45:05.675Z,54.48
2018-09-21T13:47:33.971Z,53.32
2018-09-21T13:50:02.251Z,54.95
2018-09-21T13:52:30.534Z,53.00
2018-09-21T13:54:58.835Z,54.24
2018-09-21T13:57:27.114Z,54.66
2018-09-21T13:59:55.407Z,54.90
2018-09-21T14:02:23.906Z,55.09
2018-09-21T14:04:52.186Z,54.81
2018-09-21T14:07:20.476Z,55.26
2018-09-21T14:09:48.762Z,54.70
2018-09-21T14:12:17.044Z,55.08
2018-09-21T14:14:45.326Z,55.00
2018-09-21T14:17:13.623Z,55.82
2018-09-21T14:19:41.908Z,56.71
2018-09-21T14:22:10.195Z,56.93
2018-09-21T14:24:38.491Z,57.43
2018-09-21T14:27:06.775Z,55.76
2018-09-21T14:29:35.058Z,55.69
2018-09-21T14:32:03.366Z,56.31
2018-09-21T14:34:31.653Z,55.33
2018-09-21T14:36:59.935Z,54.77
2018-09-21T14:39:28.273Z,54.80
2018-09-21T14:41:56.568Z,50.47
2018-09-21T14:44:24.845Z,49.34
2018-09-21T14:46:53.134Z,48.73
2018-09-21T14:49:21.546Z,47.29
2018-09-21T14:51:49.854Z,48.51
2018-09-21T14:54:18.154Z,48.08
2018-09-21T14:56:46.434Z,47.48
2018-09-21T14:59:14.706Z,47.47
2018-09-21T15:01:42.998Z,47.40
2018-09-21T15:04:11.278Z,48.12
2018-09-21T15:06:39.559Z,46.77
2018-09-21T15:09:07.852Z,48.15
2018-09-21T15:11:36.126Z,47.43
2018-09-21T15:14:04.407Z,46.06
2018-09-21T15:16:32.758Z,47.26
2018-09-21T15:19:00.978Z,46.38
2018-09-21T15:21:29.246Z,45.64
2018-09-21T15:23:57.535Z,45.01
2018-09-21T15:26:25.814Z,45.00
2018-09-21T15:28:54.086Z,44.82
2018-09-21T15:31:22.381Z,56.38
2018-09-21T15:33:50.663Z,62.85
2018-09-21T15:36:21.974Z,67.31
2018-09-21T15:38:50.268Z,70.48
2018-09-21T15:41:18.557Z,74.92
2018-09-21T15:43:46.938Z,80.87
2018-09-21T15:46:15.245Z,84.15
2018-09-21T15:48:43.566Z,88.22
2018-09-21T15:51:11.822Z,88.23
2018-09-21T15:53:40.118Z,88.66
2018-09-21T15:56:08.398Z,90.27
2018-09-21T15:58:36.691Z,90.63
2018-09-21T16:01:04.971Z,93.56
2018-09-21T16:03:33.246Z,93.67
2018-09-21T16:06:01.579Z,93.65
2018-09-21T16:08:29.806Z,93.16
2018-09-21T16:10:58.083Z,94.01
2018-09-21T16:13:26.362Z,94.77
2018-09-21T16:15:54.650Z,96.76
2018-09-21T16:18:22.922Z,98.45
2018-09-21T16:20:51.210Z,98.84
2018-09-21T16:23:19.507Z,97.36
2018-09-21T16:25:47.774Z,98.03
2018-09-21T16:28:16.052Z,98.01
2018-09-21T16:30:44.513Z,97.63
2018-09-21T16:33:12.753Z,99.90
2018-09-21T16:35:41.023Z,98.79
2018-09-21T16:38:09.310Z,100.00
2018-09-21T16:40:37.600Z,100.00
2018-09-21T16:43:05.894Z,100.00
2018-09-21T16:45:34.182Z,99.10
2018-09-21T16:48:02.534Z,98.90
2018-09-21T16:50:30.814Z,98.45
2018-09-21T16:52:59.115Z,100.00
2018-09-21T16:55:27.394Z,99.29
2018-09-21T16:57:55.716Z,98.40
2018-09-21T17:00:23.982Z,94.22
2018-09-21T17:02:52.258Z,93.48
2018-09-21T17:05:20.543Z,88.32
2018-09-21T17:07:48.855Z,86.54
2018-09-21T17:10:17.130Z,81.22
2018-09-21T17:12:45.413Z,81.40
2018-09-21T17:15:13.703Z,81.83
2018-09-21T17:17:41.976Z,79.96
2018-09-21T17:20:10.279Z,79.55
2018-09-21T17:22:38.551Z,82.22
2018-09-21T17:25:06.830Z,81.96
2018-09-21T17:27:35.124Z,81.39
2018-09-21T17:30:03.418Z,79.80
2018-09-21T17:32:31.704Z,80.42
2018-09-21T17:34:59.997Z,80.07
2018-09-21T17:37:28.327Z,79.86
2018-09-21T17:39:56.599Z,80.66
2018-09-21T17:42:24.864Z,81.18
2018-09-21T17:44:53.172Z,80.97
2018-09-21T17:47:21.446Z,81.51
2018-09-21T17:49:49.726Z,80.27
2018-09-21T17:52:18.019Z,81.20
2018-09-21T17:54:46.333Z,81.75
2018-09-21T17:57:14.611Z,82.35
2018-09-21T17:59:42.909Z,82.28
2018-09-21T18:02:11.203Z,83.64
2018-09-21T18:04:39.485Z,83.42
2018-09-21T18:07:07.788Z,85.31
2018-09-21T18:09:36.070Z,84.06
2018-09-21T18:12:04.347Z,83.49
2018-09-21T18:14:32.649Z,83.99
2018-09-21T18:17:00.935Z,84.50
2018-09-21T18:19:29.218Z,84.89
2018-09-21T18:21:57.506Z,83.87
2018-09-21T18:24:25.792Z,82.42
2018-09-21T18:26:54.082Z,82.46
2018-09-21T18:29:22.374Z,84.05
2018-09-21T18:31:50.647Z,82.58
2018-09-21T18:34:18.924Z,80.96
2018-09-21T18:36:47.232Z,80.67
2018-09-21T18:39:22.692Z,81.12
2018-09-21T18:41:52.143Z,80.79
2018-09-21T18:44:20.423Z,79.33
2018-09-21T18:46:48.703Z,78.43
2018-09-21T18:49:17.022Z,79.35
2018-09-21T18:51:45.319Z,79.95
2018-09-21T18:54:13.645Z,79.48
2018-09-21T18:56:41.928Z,79.99
2018-09-21T18:59:10.284Z,80.11
2018-09-21T19:01:38.742Z,80.14
2018-09-21T19:04:07.058Z,78.28
2018-09-21T19:06:35.314Z,77.07
2018-09-21T19:09:03.623Z,77.90
2018-09-21T19:11:31.920Z,78.52
2018-09-21T19:14:00.206Z,78.48
2018-09-21T19:16:28.484Z,78.24
2018-09-21T19:18:56.803Z,78.01
2018-09-21T19:21:25.066Z,78.68
2018-09-21T19:23:53.363Z,78.24
2018-09-21T19:26:21.689Z,77.11
2018-09-21T19:28:49.939Z,77.91
2018-09-21T19:31:18.218Z,78.41
2018-09-21T19:33:46.517Z,78.36
2018-09-21T19:36:14.818Z,78.52
2018-09-21T19:38:43.249Z,80.00
2018-09-21T19:41:11.418Z,78.12
2018-09-21T19:43:39.705Z,77.34
2018-09-21T19:46:07.986Z,79.13
2018-09-21T19:48:36.290Z,78.17
2018-09-21T19:51:04.570Z,77.77
2018-09-21T19:53:32.866Z,79.55
2018-09-21T19:56:01.163Z,78.66
2018-09-21T19:58:29.447Z,78.90
2018-09-21T20:00:57.727Z,78.59
2018-09-21T20:03:26.060Z,78.11
2018-09-21T20:05:54.311Z,76.71
2018-09-21T20:08:22.590Z,76.66
2018-09-21T20:10:50.891Z,76.64
2018-09-21T20:13:19.177Z,75.23
2018-09-21T20:15:47.472Z,73.86
2018-09-21T20:18:15.767Z,74.73
2018-09-21T20:20:44.047Z,73.92
2018-09-21T20:23:12.342Z,74.81
2018-09-21T20:25:40.630Z,73.53
2018-09-21T20:28:08.906Z,72.46
2018-09-21T20:30:37.194Z,72.19
2018-09-21T20:36:06.747Z,69.89
2018-09-21T20:38:35.040Z,70.05
2018-09-21T20:41:03.334Z,70.91
2018-09-21T20:43:31.635Z,69.87
2018-09-21T20:46:00.072Z,70.63
2018-09-21T20:48:28.335Z,71.22
2018-09-21T20:50:56.619Z,70.85
2018-09-21T20:53:24.915Z,70.76
2018-09-21T20:55:53.195Z,70.85
2018-09-21T20:58:21.471Z,69.30
2018-09-21T21:00:49.789Z,71.05
2018-09-21T21:03:18.067Z,71.76
2018-09-21T21:05:46.364Z,71.42
2018-09-21T21:08:14.671Z,70.88
2018-09-21T21:10:42.951Z,70.91
2018-09-21T21:13:11.286Z,70.84
2018-09-21T21:15:39.578Z,71.01
2018-09-21T21:18:07.801Z,70.46
2018-09-21T21:20:36.091Z,69.62
2018-09-21T21:23:04.376Z,71.25
2018-09-21T21:25:33.641Z,70.94
2018-09-21T21:28:01.939Z,69.66
2018-09-21T21:30:30.246Z,69.90
2018-09-21T21:32:58.535Z,69.59
2018-09-21T21:35:26.822Z,71.41
2018-09-21T21:37:55.141Z,70.49
2018-09-21T21:40:23.427Z,68.76
2018-09-21T21:42:51.695Z,69.53
2018-09-21T21:45:19.986Z,70.38
2018-09-21T21:47:48.270Z,70.17
2018-09-21T21:50:16.749Z,71.22
2018-09-21T21:52:45.057Z,69.61
2018-09-21T21:55:13.331Z,70.03
2018-09-21T21:57:41.614Z,71.64
2018-09-21T22:00:09.914Z,70.97
2018-09-21T22:02:38.203Z,70.28
2018-09-21T22:05:06.485Z,70.84
2018-09-21T22:07:34.803Z,71.25
2018-09-21T22:10:03.177Z,70.56
2018-09-21T22:12:37.134Z,69.90
2018-09-21T22:15:05.403Z,69.95
2018-09-21T22:17:33.687Z,70.55
2018-09-21T22:20:01.975Z,69.80
2018-09-21T22:22:30.258Z,70.52
2018-09-21T22:24:58.558Z,69.67
2018-09-21T22:27:26.839Z,69.50
2018-09-21T22:29:55.116Z,70.42
2018-09-21T22:32:23.398Z,69.99
2018-09-21T22:34:51.687Z,69.69
2018-09-21T22:37:19.986Z,70.02
2018-09-21T22:39:48.419Z,71.76
2018-09-21T22:42:16.702Z,70.98
2018-09-21T22:44:45.006Z,71.71
2018-09-21T22:47:13.320Z,70.34
2018-09-21T22:49:42.059Z,69.72
2018-09-21T22:52:10.398Z,70.05
2018-09-21T22:54:38.679Z,70.99
2018-09-21T22:57:07.152Z,70.23
2018-09-21T22:59:35.446Z,69.22
2018-09-21T23:02:03.730Z,70.49
2018-09-21T23:04:32.007Z,69.56
2018-09-21T23:07:00.412Z,67.92
2018-09-21T23:09:28.671Z,69.21
2018-09-21T23:11:57.118Z,69.10
2018-09-21T23:14:25.468Z,68.24
2018-09-21T23:16:53.760Z,68.04
2018-09-21T23:19:22.862Z,68.20
2018-09-21T23:21:51.149Z,69.45
2018-09-21T23:24:19.501Z,69.00
2018-09-21T23:26:47.770Z,69.08
2018-09-21T23:29:16.068Z,69.17
2018-09-21T23:31:44.410Z,70.08
2018-09-21T23:34:12.690Z,71.29
2018-09-21T23:36:41.078Z,71.00
2018-09-21T23:39:09.358Z,71.43
2018-09-21T23:41:37.706Z,70.98
2018-09-21T23:44:05.986Z,71.52
2018-09-21T23:46:34.274Z,72.05
2018-09-21T23:49:02.581Z,73.05
2018-09-21T23:51:30.882Z,72.30
2018-09-21T23:53:59.206Z,72.77
2018-09-21T23:56:27.489Z,74.78
2018-09-21T23:58:55.778Z,74.49
